sensor_id;sensor_type;location;lat;lon;timestamp;P1;durP1;ratioP1;P2;durP2;ratioP2
19643;SDS011;9970;-36.854;174.870;2022-07-24T00:00:06;2.83;;;2.83;;
19643;SDS011;9970;-36.854;174.870;2022-07-24T00:02:40;2.40;;;2.40;;
19643;SDS011;9970;-36.854;174.870;2022-07-24T00:05:13;2.50;;;2.50;;
19643;SDS011;9970;-36.854;174.870;2022-07-24T00:07:46;2.50;;;2.50;;
19643;SDS011;9970;-36.854;174.870;2022-07-24T00:10:23;2.47;;;2.47;;
19643;SDS011;9970;-36.854;174.870;2022-07-24T00:12:55;2.30;;;2.30;;
19643;SDS011;9970;-36.854;174.870;2022-07-24T00:15:28;2.53;;;2.53;;
19643;SDS011;9970;-36.854;174.870;2022-07-24T00:18:01;2.40;;;2.40;;
19643;SDS011;9970;-36.854;174.870;2022-07-24T00:20:34;2.50;;;2.50;;
19643;SDS011;9970;-36.854;174.870;2022-07-24T00:23:07;2.50;;;2.50;;
19643;SDS011;9970;-36.854;174.870;2022-07-24T00:25:45;2.30;;;2.30;;
19643;SDS011;9970;-36.854;174.870;2022-07-24T00:28:18;2.60;;;2.60;;
19643;SDS011;9970;-36.854;174.870;2022-07-24T00:30:51;2.50;;;2.50;;
19643;SDS011;9970;-36.854;174.870;2022-07-24T00:33:23;2.43;;;2.43;;
19643;SDS011;9970;-36.854;174.870;2022-07-24T00:35:56;2.37;;;2.37;;
19643;SDS011;9970;-36.854;174.870;2022-07-24T00:38:29;2.60;;;2.60;;
19643;SDS011;9970;-36.854;174.870;2022-07-24T00:41:02;2.50;;;2.50;;
19643;SDS011;9970;-36.854;174.870;2022-07-24T00:43:56;2.60;;;2.60;;
19643;SDS011;9970;-36.854;174.870;2022-07-24T00:46:26;2.60;;;2.60;;
19643;SDS011;9970;-36.854;174.870;2022-07-24T00:49:00;2.50;;;2.50;;
19643;SDS011;9970;-36.854;174.870;2022-07-24T00:51:35;2.50;;;2.50;;
19643;SDS011;9970;-36.854;174.870;2022-07-24T00:54:10;2.50;;;2.50;;
19643;SDS011;9970;-36.854;174.870;2022-07-24T00:56:48;2.60;;;2.60;;
19643;SDS011;9970;-36.854;174.870;2022-07-24T00:59:22;2.50;;;2.50;;
19643;SDS011;9970;-36.854;174.870;2022-07-24T01:01:55;2.40;;;2.40;;
19643;SDS011;9970;-36.854;174.870;2022-07-24T01:04:27;2.40;;;2.40;;
19643;SDS011;9970;-36.854;174.870;2022-07-24T01:07:00;2.47;;;2.47;;
19643;SDS011;9970;-36.854;174.870;2022-07-24T01:09:33;2.63;;;2.63;;
19643;SDS011;9970;-36.854;174.870;2022-07-24T01:12:07;2.50;;;2.50;;
19643;SDS011;9970;-36.854;174.870;2022-07-24T01:14:40;2.50;;;2.50;;
19643;SDS011;9970;-36.854;174.870;2022-07-24T01:17:13;2.50;;;2.50;;
19643;SDS011;9970;-36.854;174.870;2022-07-24T01:19:50;2.50;;;2.50;;
19643;SDS011;9970;-36.854;174.870;2022-07-24T01:22:22;2.40;;;2.40;;
19643;SDS011;9970;-36.854;174.870;2022-07-24T01:24:56;2.40;;;2.40;;
19643;SDS011;9970;-36.854;174.870;2022-07-24T01:27:29;2.60;;;2.60;;
19643;SDS011;9970;-36.854;174.870;2022-07-24T01:30:02;2.80;;;2.80;;
19643;SDS011;9970;-36.854;174.870;2022-07-24T01:32:35;2.60;;;2.60;;
19643;SDS011;9970;-36.854;174.870;2022-07-24T01:35:08;2.50;;;2.50;;
19643;SDS011;9970;-36.854;174.870;2022-07-24T01:37:42;2.60;;;2.60;;
19643;SDS011;9970;-36.854;174.870;2022-07-24T01:40:15;2.60;;;2.60;;
19643;SDS011;9970;-36.854;174.870;2022-07-24T01:42:52;2.50;;;2.50;;
19643;SDS011;9970;-36.854;174.870;2022-07-24T01:45:25;2.60;;;2.60;;
19643;SDS011;9970;-36.854;174.870;2022-07-24T01:47:58;2.60;;;2.60;;
19643;SDS011;9970;-36.854;174.870;2022-07-24T01:50:32;2.60;;;2.60;;
19643;SDS011;9970;-36.854;174.870;2022-07-24T01:53:05;2.60;;;2.60;;
19643;SDS011;9970;-36.854;174.870;2022-07-24T01:55:38;2.70;;;2.70;;
19643;SDS011;9970;-36.854;174.870;2022-07-24T01:58:10;2.43;;;2.43;;
19643;SDS011;9970;-36.854;174.870;2022-07-24T02:00:49;2.47;;;2.47;;
19643;SDS011;9970;-36.854;174.870;2022-07-24T02:03:22;2.50;;;2.50;;
19643;SDS011;9970;-36.854;174.870;2022-07-24T02:05:55;2.63;;;2.63;;
19643;SDS011;9970;-36.854;174.870;2022-07-24T02:08:28;2.70;;;2.70;;
19643;SDS011;9970;-36.854;174.870;2022-07-24T02:11:01;2.50;;;2.50;;
19643;SDS011;9970;-36.854;174.870;2022-07-24T02:13:35;2.60;;;2.60;;
19643;SDS011;9970;-36.854;174.870;2022-07-24T02:16:08;2.60;;;2.60;;
19643;SDS011;9970;-36.854;174.870;2022-07-24T02:18:41;2.70;;;2.70;;
19643;SDS011;9970;-36.854;174.870;2022-07-24T02:21:15;2.50;;;2.50;;
19643;SDS011;9970;-36.854;174.870;2022-07-24T02:23:48;2.50;;;2.50;;
19643;SDS011;9970;-36.854;174.870;2022-07-24T02:26:21;2.70;;;2.70;;
19643;SDS011;9970;-36.854;174.870;2022-07-24T02:28:54;2.67;;;2.67;;
19643;SDS011;9970;-36.854;174.870;2022-07-24T02:31:27;2.80;;;2.80;;
19643;SDS011;9970;-36.854;174.870;2022-07-24T02:34:00;3.00;;;3.00;;
19643;SDS011;9970;-36.854;174.870;2022-07-24T02:36:33;2.70;;;2.70;;
19643;SDS011;9970;-36.854;174.870;2022-07-24T02:39:06;2.50;;;2.50;;
19643;SDS011;9970;-36.854;174.870;2022-07-24T02:41:39;2.70;;;2.70;;
19643;SDS011;9970;-36.854;174.870;2022-07-24T02:44:12;2.60;;;2.60;;
19643;SDS011;9970;-36.854;174.870;2022-07-24T02:46:46;2.50;;;2.50;;
19643;SDS011;9970;-36.854;174.870;2022-07-24T02:49:19;2.20;;;2.20;;
19643;SDS011;9970;-36.854;174.870;2022-07-24T02:51:52;2.00;;;2.00;;
19643;SDS011;9970;-36.854;174.870;2022-07-24T02:54:26;1.90;;;1.90;;
19643;SDS011;9970;-36.854;174.870;2022-07-24T02:57:00;1.80;;;1.80;;
19643;SDS011;9970;-36.854;174.870;2022-07-24T02:59:33;1.90;;;1.90;;
19643;SDS011;9970;-36.854;174.870;2022-07-24T03:02:06;2.80;;;2.80;;
19643;SDS011;9970;-36.854;174.870;2022-07-24T03:04:43;1.70;;;1.70;;
19643;SDS011;9970;-36.854;174.870;2022-07-24T03:07:16;1.60;;;1.60;;
19643;SDS011;9970;-36.854;174.870;2022-07-24T03:09:49;1.70;;;1.70;;
19643;SDS011;9970;-36.854;174.870;2022-07-24T03:12:25;1.80;;;1.80;;
19643;SDS011;9970;-36.854;174.870;2022-07-24T03:14:55;1.70;;;1.70;;
19643;SDS011;9970;-36.854;174.870;2022-07-24T03:17:28;1.80;;;1.80;;
19643;SDS011;9970;-36.854;174.870;2022-07-24T03:20:01;1.67;;;1.67;;
19643;SDS011;9970;-36.854;174.870;2022-07-24T03:22:34;1.60;;;1.60;;
19643;SDS011;9970;-36.854;174.870;2022-07-24T03:25:07;1.60;;;1.60;;
19643;SDS011;9970;-36.854;174.870;2022-07-24T03:27:40;1.50;;;1.50;;
19643;SDS011;9970;-36.854;174.870;2022-07-24T03:30:19;1.40;;;1.40;;
19643;SDS011;9970;-36.854;174.870;2022-07-24T03:32:53;1.40;;;1.40;;
19643;SDS011;9970;-36.854;174.870;2022-07-24T03:35:25;1.40;;;1.40;;
19643;SDS011;9970;-36.854;174.870;2022-07-24T03:37:59;1.40;;;1.40;;
19643;SDS011;9970;-36.854;174.870;2022-07-24T03:40:32;1.40;;;1.40;;
19643;SDS011;9970;-36.854;174.870;2022-07-24T03:43:04;1.40;;;1.40;;
19643;SDS011;9970;-36.854;174.870;2022-07-24T03:45:46;1.30;;;1.30;;
19643;SDS011;9970;-36.854;174.870;2022-07-24T03:48:15;1.30;;;1.30;;
19643;SDS011;9970;-36.854;174.870;2022-07-24T03:50:48;1.30;;;1.30;;
19643;SDS011;9970;-36.854;174.870;2022-07-24T03:53:21;1.20;;;1.20;;
19643;SDS011;9970;-36.854;174.870;2022-07-24T03:55:56;1.30;;;1.30;;
19643;SDS011;9970;-36.854;174.870;2022-07-24T03:58:28;1.20;;;1.20;;
19643;SDS011;9970;-36.854;174.870;2022-07-24T04:01:02;1.20;;;1.20;;
19643;SDS011;9970;-36.854;174.870;2022-07-24T04:03:35;1.20;;;1.20;;
19643;SDS011;9970;-36.854;174.870;2022-07-24T04:06:09;1.20;;;1.20;;
19643;SDS011;9970;-36.854;174.870;2022-07-24T04:08:42;1.10;;;1.10;;
19643;SDS011;9970;-36.854;174.870;2022-07-24T04:11:16;1.20;;;1.20;;
19643;SDS011;9970;-36.854;174.870;2022-07-24T04:13:49;1.20;;;1.20;;
19643;SDS011;9970;-36.854;174.870;2022-07-24T04:16:22;1.30;;;1.30;;
19643;SDS011;9970;-36.854;174.870;2022-07-24T04:18:55;1.20;;;1.20;;
19643;SDS011;9970;-36.854;174.870;2022-07-24T04:21:29;1.20;;;1.20;;
19643;SDS011;9970;-36.854;174.870;2022-07-24T04:24:02;1.20;;;1.20;;
19643;SDS011;9970;-36.854;174.870;2022-07-24T04:26:35;1.20;;;1.20;;
19643;SDS011;9970;-36.854;174.870;2022-07-24T04:29:08;1.20;;;1.20;;
19643;SDS011;9970;-36.854;174.870;2022-07-24T04:31:55;1.20;;;1.20;;
19643;SDS011;9970;-36.854;174.870;2022-07-24T04:34:28;1.20;;;1.20;;
19643;SDS011;9970;-36.854;174.870;2022-07-24T04:37:01;1.20;;;1.20;;
19643;SDS011;9970;-36.854;174.870;2022-07-24T04:39:34;1.20;;;1.20;;
19643;SDS011;9970;-36.854;174.870;2022-07-24T04:42:07;1.30;;;1.30;;
19643;SDS011;9970;-36.854;174.870;2022-07-24T04:44:40;1.20;;;1.20;;
19643;SDS011;9970;-36.854;174.870;2022-07-24T04:47:13;1.20;;;1.20;;
19643;SDS011;9970;-36.854;174.870;2022-07-24T04:49:45;1.20;;;1.20;;
19643;SDS011;9970;-36.854;174.870;2022-07-24T04:52:18;1.10;;;1.10;;
19643;SDS011;9970;-36.854;174.870;2022-07-24T04:54:51;1.10;;;1.10;;
19643;SDS011;9970;-36.854;174.870;2022-07-24T04:57:24;1.10;;;1.10;;
19643;SDS011;9970;-36.854;174.870;2022-07-24T04:59:56;1.30;;;1.30;;
19643;SDS011;9970;-36.854;174.870;2022-07-24T05:02:30;1.20;;;1.20;;
19643;SDS011;9970;-36.854;174.870;2022-07-24T05:05:03;1.10;;;1.10;;
19643;SDS011;9970;-36.854;174.870;2022-07-24T05:07:36;1.20;;;1.20;;
19643;SDS011;9970;-36.854;174.870;2022-07-24T05:10:09;1.10;;;1.10;;
19643;SDS011;9970;-36.854;174.870;2022-07-24T05:12:47;1.20;;;1.20;;
19643;SDS011;9970;-36.854;174.870;2022-07-24T05:15:16;1.20;;;1.20;;
19643;SDS011;9970;-36.854;174.870;2022-07-24T05:17:49;1.20;;;1.20;;
19643;SDS011;9970;-36.854;174.870;2022-07-24T05:20:22;1.30;;;1.30;;
19643;SDS011;9970;-36.854;174.870;2022-07-24T05:22:55;1.20;;;1.20;;
19643;SDS011;9970;-36.854;174.870;2022-07-24T05:25:28;1.30;;;1.30;;
19643;SDS011;9970;-36.854;174.870;2022-07-24T05:28:01;1.30;;;1.30;;
19643;SDS011;9970;-36.854;174.870;2022-07-24T05:30:33;1.20;;;1.20;;
19643;SDS011;9970;-36.854;174.870;2022-07-24T05:33:06;1.30;;;1.30;;
19643;SDS011;9970;-36.854;174.870;2022-07-24T05:35:39;1.30;;;1.30;;
19643;SDS011;9970;-36.854;174.870;2022-07-24T05:38:13;1.40;;;1.40;;
19643;SDS011;9970;-36.854;174.870;2022-07-24T05:40:46;1.40;;;1.40;;
19643;SDS011;9970;-36.854;174.870;2022-07-24T05:43:19;1.60;;;1.60;;
19643;SDS011;9970;-36.854;174.870;2022-07-24T05:45:52;1.40;;;1.40;;
19643;SDS011;9970;-36.854;174.870;2022-07-24T05:48:25;1.50;;;1.50;;
19643;SDS011;9970;-36.854;174.870;2022-07-24T05:50:58;1.50;;;1.50;;
19643;SDS011;9970;-36.854;174.870;2022-07-24T05:53:31;1.40;;;1.40;;
19643;SDS011;9970;-36.854;174.870;2022-07-24T05:56:04;1.30;;;1.30;;
19643;SDS011;9970;-36.854;174.870;2022-07-24T05:58:37;1.40;;;1.40;;
19643;SDS011;9970;-36.854;174.870;2022-07-24T06:01:10;1.40;;;1.40;;
19643;SDS011;9970;-36.854;174.870;2022-07-24T06:03:43;1.33;;;1.33;;
19643;SDS011;9970;-36.854;174.870;2022-07-24T06:06:16;1.30;;;1.30;;
19643;SDS011;9970;-36.854;174.870;2022-07-24T06:08:48;1.33;;;1.33;;
19643;SDS011;9970;-36.854;174.870;2022-07-24T06:11:21;1.37;;;1.37;;
19643;SDS011;9970;-36.854;174.870;2022-07-24T06:13:55;1.40;;;1.40;;
19643;SDS011;9970;-36.854;174.870;2022-07-24T06:16:28;1.30;;;1.30;;
19643;SDS011;9970;-36.854;174.870;2022-07-24T06:19:05;1.20;;;1.20;;
19643;SDS011;9970;-36.854;174.870;2022-07-24T06:21:38;1.30;;;1.30;;
19643;SDS011;9970;-36.854;174.870;2022-07-24T06:24:11;1.30;;;1.30;;
19643;SDS011;9970;-36.854;174.870;2022-07-24T06:26:44;1.20;;;1.20;;
19643;SDS011;9970;-36.854;174.870;2022-07-24T06:29:18;1.13;;;1.13;;
19643;SDS011;9970;-36.854;174.870;2022-07-24T06:31:51;1.20;;;1.20;;
19643;SDS011;9970;-36.854;174.870;2022-07-24T06:34:23;1.20;;;1.20;;
19643;SDS011;9970;-36.854;174.870;2022-07-24T06:36:56;1.20;;;1.20;;
19643;SDS011;9970;-36.854;174.870;2022-07-24T06:39:33;1.20;;;1.20;;
19643;SDS011;9970;-36.854;174.870;2022-07-24T06:42:06;1.23;;;1.23;;
19643;SDS011;9970;-36.854;174.870;2022-07-24T06:44:39;1.30;;;1.30;;
19643;SDS011;9970;-36.854;174.870;2022-07-24T06:47:12;1.20;;;1.20;;
19643;SDS011;9970;-36.854;174.870;2022-07-24T06:49:45;1.40;;;1.40;;
19643;SDS011;9970;-36.854;174.870;2022-07-24T06:52:22;1.20;;;1.20;;
19643;SDS011;9970;-36.854;174.870;2022-07-24T06:54:55;1.30;;;1.30;;
19643;SDS011;9970;-36.854;174.870;2022-07-24T06:57:29;1.23;;;1.23;;
19643;SDS011;9970;-36.854;174.870;2022-07-24T07:00:02;1.20;;;1.20;;
19643;SDS011;9970;-36.854;174.870;2022-07-24T07:02:39;1.30;;;1.30;;
19643;SDS011;9970;-36.854;174.870;2022-07-24T07:05:11;1.40;;;1.40;;
19643;SDS011;9970;-36.854;174.870;2022-07-24T07:07:44;1.20;;;1.20;;
19643;SDS011;9970;-36.854;174.870;2022-07-24T07:10:21;1.30;;;1.30;;
19643;SDS011;9970;-36.854;174.870;2022-07-24T07:12:51;1.20;;;1.20;;
19643;SDS011;9970;-36.854;174.870;2022-07-24T07:15:24;1.27;;;1.27;;
19643;SDS011;9970;-36.854;174.870;2022-07-24T07:17:58;1.20;;;1.20;;
19643;SDS011;9970;-36.854;174.870;2022-07-24T07:20:37;1.10;;;1.10;;
19643;SDS011;9970;-36.854;174.870;2022-07-24T07:23:05;1.20;;;1.20;;
19643;SDS011;9970;-36.854;174.870;2022-07-24T07:25:38;1.20;;;1.20;;
19643;SDS011;9970;-36.854;174.870;2022-07-24T07:28:11;1.20;;;1.20;;
19643;SDS011;9970;-36.854;174.870;2022-07-24T07:30:44;1.20;;;1.20;;
19643;SDS011;9970;-36.854;174.870;2022-07-24T07:33:18;1.10;;;1.10;;
19643;SDS011;9970;-36.854;174.870;2022-07-24T07:35:51;1.20;;;1.20;;
19643;SDS011;9970;-36.854;174.870;2022-07-24T07:38:23;1.20;;;1.20;;
19643;SDS011;9970;-36.854;174.870;2022-07-24T07:40:56;1.10;;;1.10;;
19643;SDS011;9970;-36.854;174.870;2022-07-24T07:43:29;1.13;;;1.13;;
19643;SDS011;9970;-36.854;174.870;2022-07-24T07:46:05;1.13;;;1.13;;
19643;SDS011;9970;-36.854;174.870;2022-07-24T07:48:38;1.20;;;1.20;;
19643;SDS011;9970;-36.854;174.870;2022-07-24T07:51:11;1.13;;;1.13;;
19643;SDS011;9970;-36.854;174.870;2022-07-24T07:53:45;1.40;;;1.40;;
19643;SDS011;9970;-36.854;174.870;2022-07-24T07:56:18;1.13;;;1.13;;
19643;SDS011;9970;-36.854;174.870;2022-07-24T07:58:52;1.30;;;1.30;;
19643;SDS011;9970;-36.854;174.870;2022-07-24T08:01:26;1.23;;;1.23;;
19643;SDS011;9970;-36.854;174.870;2022-07-24T08:03:59;1.20;;;1.20;;
19643;SDS011;9970;-36.854;174.870;2022-07-24T08:06:32;1.20;;;1.20;;
19643;SDS011;9970;-36.854;174.870;2022-07-24T08:09:05;1.20;;;1.20;;
19643;SDS011;9970;-36.854;174.870;2022-07-24T08:11:38;1.20;;;1.20;;
19643;SDS011;9970;-36.854;174.870;2022-07-24T08:14:11;1.20;;;1.20;;
19643;SDS011;9970;-36.854;174.870;2022-07-24T08:16:44;1.20;;;1.20;;
19643;SDS011;9970;-36.854;174.870;2022-07-24T08:19:17;1.20;;;1.20;;
19643;SDS011;9970;-36.854;174.870;2022-07-24T08:21:50;1.20;;;1.20;;
19643;SDS011;9970;-36.854;174.870;2022-07-24T08:24:23;1.30;;;1.30;;
19643;SDS011;9970;-36.854;174.870;2022-07-24T08:26:56;1.20;;;1.20;;
19643;SDS011;9970;-36.854;174.870;2022-07-24T08:29:29;1.20;;;1.20;;
19643;SDS011;9970;-36.854;174.870;2022-07-24T08:32:02;1.13;;;1.13;;
19643;SDS011;9970;-36.854;174.870;2022-07-24T08:34:36;1.20;;;1.20;;
19643;SDS011;9970;-36.854;174.870;2022-07-24T08:37:08;1.17;;;1.17;;
19643;SDS011;9970;-36.854;174.870;2022-07-24T08:39:42;1.20;;;1.20;;
19643;SDS011;9970;-36.854;174.870;2022-07-24T08:42:15;1.20;;;1.20;;
19643;SDS011;9970;-36.854;174.870;2022-07-24T08:44:48;1.10;;;1.10;;
19643;SDS011;9970;-36.854;174.870;2022-07-24T08:47:21;1.10;;;1.10;;
19643;SDS011;9970;-36.854;174.870;2022-07-24T08:49:56;1.00;;;1.00;;
19643;SDS011;9970;-36.854;174.870;2022-07-24T08:52:32;1.10;;;1.10;;
19643;SDS011;9970;-36.854;174.870;2022-07-24T08:55:07;1.10;;;1.10;;
19643;SDS011;9970;-36.854;174.870;2022-07-24T08:57:40;1.10;;;1.10;;
19643;SDS011;9970;-36.854;174.870;2022-07-24T09:00:13;1.10;;;1.10;;
19643;SDS011;9970;-36.854;174.870;2022-07-24T09:02:47;1.10;;;1.10;;
19643;SDS011;9970;-36.854;174.870;2022-07-24T09:05:20;1.00;;;1.00;;
19643;SDS011;9970;-36.854;174.870;2022-07-24T09:08:11;1.10;;;1.10;;
19643;SDS011;9970;-36.854;174.870;2022-07-24T09:10:54;1.10;;;1.10;;
19643;SDS011;9970;-36.854;174.870;2022-07-24T09:13:29;1.10;;;1.10;;
19643;SDS011;9970;-36.854;174.870;2022-07-24T09:16:21;1.10;;;1.10;;
19643;SDS011;9970;-36.854;174.870;2022-07-24T09:19:07;1.10;;;1.10;;
19643;SDS011;9970;-36.854;174.870;2022-07-24T09:21:42;1.20;;;1.20;;
19643;SDS011;9970;-36.854;174.870;2022-07-24T09:24:17;1.10;;;1.10;;
19643;SDS011;9970;-36.854;174.870;2022-07-24T09:26:55;1.17;;;1.17;;
19643;SDS011;9970;-36.854;174.870;2022-07-24T09:29:28;1.20;;;1.20;;
19643;SDS011;9970;-36.854;174.870;2022-07-24T09:32:02;1.23;;;1.23;;
19643;SDS011;9970;-36.854;174.870;2022-07-24T09:34:39;1.10;;;1.10;;
19643;SDS011;9970;-36.854;174.870;2022-07-24T09:37:18;1.10;;;1.10;;
19643;SDS011;9970;-36.854;174.870;2022-07-24T09:39:52;1.20;;;1.20;;
19643;SDS011;9970;-36.854;174.870;2022-07-24T09:42:31;1.20;;;1.20;;
19643;SDS011;9970;-36.854;174.870;2022-07-24T09:45:01;1.20;;;1.20;;
19643;SDS011;9970;-36.854;174.870;2022-07-24T09:47:35;1.17;;;1.17;;
19643;SDS011;9970;-36.854;174.870;2022-07-24T09:50:11;1.10;;;1.10;;
19643;SDS011;9970;-36.854;174.870;2022-07-24T09:52:46;1.20;;;1.20;;
19643;SDS011;9970;-36.854;174.870;2022-07-24T09:55:20;1.10;;;1.10;;
19643;SDS011;9970;-36.854;174.870;2022-07-24T09:57:54;1.10;;;1.10;;
19643;SDS011;9970;-36.854;174.870;2022-07-24T10:00:27;1.20;;;1.20;;
19643;SDS011;9970;-36.854;174.870;2022-07-24T10:03:00;1.20;;;1.20;;
19643;SDS011;9970;-36.854;174.870;2022-07-24T10:05:35;1.20;;;1.20;;
19643;SDS011;9970;-36.854;174.870;2022-07-24T10:08:10;1.20;;;1.20;;
19643;SDS011;9970;-36.854;174.870;2022-07-24T10:10:44;1.20;;;1.20;;
19643;SDS011;9970;-36.854;174.870;2022-07-24T10:13:19;1.30;;;1.30;;
19643;SDS011;9970;-36.854;174.870;2022-07-24T10:19:13;1.40;;;1.40;;
19643;SDS011;9970;-36.854;174.870;2022-07-24T10:21:10;1.20;;;1.20;;
19643;SDS011;9970;-36.854;174.870;2022-07-24T10:26:42;1.30;;;1.30;;
19643;SDS011;9970;-36.854;174.870;2022-07-24T10:29:13;1.30;;;1.30;;
19643;SDS011;9970;-36.854;174.870;2022-07-24T10:31:47;1.30;;;1.30;;
19643;SDS011;9970;-36.854;174.870;2022-07-24T10:35:04;1.30;;;1.30;;
19643;SDS011;9970;-36.854;174.870;2022-07-24T10:45:42;1.20;;;1.20;;
19643;SDS011;9970;-36.854;174.870;2022-07-24T10:50:59;1.10;;;1.10;;
19643;SDS011;9970;-36.854;174.870;2022-07-24T10:56:20;1.20;;;1.20;;
19643;SDS011;9970;-36.854;174.870;2022-07-24T10:59:10;1.20;;;1.20;;
19643;SDS011;9970;-36.854;174.870;2022-07-24T11:01:44;1.20;;;1.20;;
19643;SDS011;9970;-36.854;174.870;2022-07-24T11:07:11;1.20;;;1.20;;
19643;SDS011;9970;-36.854;174.870;2022-07-24T11:10:00;1.10;;;1.10;;
19643;SDS011;9970;-36.854;174.870;2022-07-24T11:12:40;1.20;;;1.20;;
19643;SDS011;9970;-36.854;174.870;2022-07-24T11:15:11;1.10;;;1.10;;
19643;SDS011;9970;-36.854;174.870;2022-07-24T11:18:14;1.20;;;1.20;;
19643;SDS011;9970;-36.854;174.870;2022-07-24T11:20:47;1.10;;;1.10;;
19643;SDS011;9970;-36.854;174.870;2022-07-24T11:23:20;1.20;;;1.20;;
19643;SDS011;9970;-36.854;174.870;2022-07-24T11:29:09;1.10;;;1.10;;
19643;SDS011;9970;-36.854;174.870;2022-07-24T11:31:36;1.10;;;1.10;;
19643;SDS011;9970;-36.854;174.870;2022-07-24T11:34:09;1.13;;;1.13;;
19643;SDS011;9970;-36.854;174.870;2022-07-24T11:36:43;1.20;;;1.20;;
19643;SDS011;9970;-36.854;174.870;2022-07-24T11:39:44;1.10;;;1.10;;
19643;SDS011;9970;-36.854;174.870;2022-07-24T11:42:00;1.20;;;1.20;;
19643;SDS011;9970;-36.854;174.870;2022-07-24T11:44:35;1.13;;;1.13;;
19643;SDS011;9970;-36.854;174.870;2022-07-24T11:47:15;1.10;;;1.10;;
19643;SDS011;9970;-36.854;174.870;2022-07-24T11:49:50;1.10;;;1.10;;
19643;SDS011;9970;-36.854;174.870;2022-07-24T11:52:31;1.20;;;1.20;;
19643;SDS011;9970;-36.854;174.870;2022-07-24T11:55:09;1.13;;;1.13;;
19643;SDS011;9970;-36.854;174.870;2022-07-24T11:57:45;1.10;;;1.10;;
19643;SDS011;9970;-36.854;174.870;2022-07-24T12:00:22;1.10;;;1.10;;
19643;SDS011;9970;-36.854;174.870;2022-07-24T12:02:57;1.10;;;1.10;;
19643;SDS011;9970;-36.854;174.870;2022-07-24T12:05:36;1.10;;;1.10;;
19643;SDS011;9970;-36.854;174.870;2022-07-24T12:08:18;1.20;;;1.20;;
19643;SDS011;9970;-36.854;174.870;2022-07-24T12:10:58;1.20;;;1.20;;
19643;SDS011;9970;-36.854;174.870;2022-07-24T12:13:31;1.17;;;1.17;;
19643;SDS011;9970;-36.854;174.870;2022-07-24T12:16:04;1.20;;;1.20;;
19643;SDS011;9970;-36.854;174.870;2022-07-24T12:18:37;1.30;;;1.30;;
19643;SDS011;9970;-36.854;174.870;2022-07-24T12:21:10;1.10;;;1.10;;
19643;SDS011;9970;-36.854;174.870;2022-07-24T12:23:47;1.20;;;1.20;;
19643;SDS011;9970;-36.854;174.870;2022-07-24T12:26:23;1.20;;;1.20;;
19643;SDS011;9970;-36.854;174.870;2022-07-24T12:29:08;1.20;;;1.20;;
19643;SDS011;9970;-36.854;174.870;2022-07-24T12:31:41;1.10;;;1.10;;
19643;SDS011;9970;-36.854;174.870;2022-07-24T12:34:14;1.20;;;1.20;;
19643;SDS011;9970;-36.854;174.870;2022-07-24T12:36:47;1.23;;;1.23;;
19643;SDS011;9970;-36.854;174.870;2022-07-24T12:39:19;1.20;;;1.20;;
19643;SDS011;9970;-36.854;174.870;2022-07-24T12:41:52;1.30;;;1.30;;
19643;SDS011;9970;-36.854;174.870;2022-07-24T12:44:38;1.40;;;1.40;;
19643;SDS011;9970;-36.854;174.870;2022-07-24T12:47:02;1.20;;;1.20;;
19643;SDS011;9970;-36.854;174.870;2022-07-24T12:49:42;1.20;;;1.20;;
19643;SDS011;9970;-36.854;174.870;2022-07-24T12:52:22;1.40;;;1.40;;
19643;SDS011;9970;-36.854;174.870;2022-07-24T12:54:57;1.27;;;1.27;;
19643;SDS011;9970;-36.854;174.870;2022-07-24T12:57:30;1.20;;;1.20;;
19643;SDS011;9970;-36.854;174.870;2022-07-24T13:00:04;1.20;;;1.20;;
19643;SDS011;9970;-36.854;174.870;2022-07-24T13:02:38;1.30;;;1.30;;
19643;SDS011;9970;-36.854;174.870;2022-07-24T13:05:11;1.30;;;1.30;;
19643;SDS011;9970;-36.854;174.870;2022-07-24T13:07:50;1.30;;;1.30;;
19643;SDS011;9970;-36.854;174.870;2022-07-24T13:10:20;1.30;;;1.30;;
19643;SDS011;9970;-36.854;174.870;2022-07-24T13:12:53;1.20;;;1.20;;
19643;SDS011;9970;-36.854;174.870;2022-07-24T13:15:26;1.30;;;1.30;;
19643;SDS011;9970;-36.854;174.870;2022-07-24T13:17:58;1.30;;;1.30;;
19643;SDS011;9970;-36.854;174.870;2022-07-24T13:20:36;1.30;;;1.30;;
19643;SDS011;9970;-36.854;174.870;2022-07-24T13:23:10;1.33;;;1.33;;
19643;SDS011;9970;-36.854;174.870;2022-07-24T13:25:45;1.40;;;1.40;;
19643;SDS011;9970;-36.854;174.870;2022-07-24T13:28:18;1.30;;;1.30;;
19643;SDS011;9970;-36.854;174.870;2022-07-24T13:30:51;1.20;;;1.20;;
19643;SDS011;9970;-36.854;174.870;2022-07-24T13:33:24;1.30;;;1.30;;
19643;SDS011;9970;-36.854;174.870;2022-07-24T13:35:57;1.30;;;1.30;;
19643;SDS011;9970;-36.854;174.870;2022-07-24T13:38:32;1.37;;;1.37;;
19643;SDS011;9970;-36.854;174.870;2022-07-24T13:41:09;1.40;;;1.40;;
19643;SDS011;9970;-36.854;174.870;2022-07-24T13:43:42;1.27;;;1.27;;
19643;SDS011;9970;-36.854;174.870;2022-07-24T13:46:15;1.30;;;1.30;;
19643;SDS011;9970;-36.854;174.870;2022-07-24T13:48:48;1.30;;;1.30;;
19643;SDS011;9970;-36.854;174.870;2022-07-24T13:51:22;1.20;;;1.20;;
19643;SDS011;9970;-36.854;174.870;2022-07-24T13:53:55;1.20;;;1.20;;
19643;SDS011;9970;-36.854;174.870;2022-07-24T13:56:29;1.30;;;1.30;;
19643;SDS011;9970;-36.854;174.870;2022-07-24T13:59:02;1.20;;;1.20;;
19643;SDS011;9970;-36.854;174.870;2022-07-24T14:01:35;1.30;;;1.30;;
19643;SDS011;9970;-36.854;174.870;2022-07-24T14:04:13;1.30;;;1.30;;
19643;SDS011;9970;-36.854;174.870;2022-07-24T14:06:47;1.40;;;1.40;;
19643;SDS011;9970;-36.854;174.870;2022-07-24T14:09:19;1.40;;;1.40;;
19643;SDS011;9970;-36.854;174.870;2022-07-24T14:11:53;1.30;;;1.30;;
19643;SDS011;9970;-36.854;174.870;2022-07-24T14:14:26;1.40;;;1.40;;
19643;SDS011;9970;-36.854;174.870;2022-07-24T14:16:59;1.30;;;1.30;;
19643;SDS011;9970;-36.854;174.870;2022-07-24T14:19:34;1.40;;;1.40;;
19643;SDS011;9970;-36.854;174.870;2022-07-24T14:22:07;1.30;;;1.30;;
19643;SDS011;9970;-36.854;174.870;2022-07-24T14:24:41;1.30;;;1.30;;
19643;SDS011;9970;-36.854;174.870;2022-07-24T14:27:14;1.50;;;1.50;;
19643;SDS011;9970;-36.854;174.870;2022-07-24T14:29:47;1.50;;;1.50;;
19643;SDS011;9970;-36.854;174.870;2022-07-24T14:32:20;1.40;;;1.40;;
19643;SDS011;9970;-36.854;174.870;2022-07-24T14:34:53;1.40;;;1.40;;
19643;SDS011;9970;-36.854;174.870;2022-07-24T14:37:26;1.43;;;1.43;;
19643;SDS011;9970;-36.854;174.870;2022-07-24T14:39:59;1.40;;;1.40;;
19643;SDS011;9970;-36.854;174.870;2022-07-24T14:42:32;1.50;;;1.50;;
19643;SDS011;9970;-36.854;174.870;2022-07-24T14:45:05;1.50;;;1.50;;
19643;SDS011;9970;-36.854;174.870;2022-07-24T14:47:38;1.40;;;1.40;;
19643;SDS011;9970;-36.854;174.870;2022-07-24T14:50:11;1.40;;;1.40;;
19643;SDS011;9970;-36.854;174.870;2022-07-24T14:52:45;1.60;;;1.60;;
19643;SDS011;9970;-36.854;174.870;2022-07-24T14:55:18;1.40;;;1.40;;
19643;SDS011;9970;-36.854;174.870;2022-07-24T14:57:51;1.50;;;1.50;;
19643;SDS011;9970;-36.854;174.870;2022-07-24T15:00:28;1.47;;;1.47;;
19643;SDS011;9970;-36.854;174.870;2022-07-24T15:03:01;1.50;;;1.50;;
19643;SDS011;9970;-36.854;174.870;2022-07-24T15:05:34;1.60;;;1.60;;
19643;SDS011;9970;-36.854;174.870;2022-07-24T15:08:07;1.50;;;1.50;;
19643;SDS011;9970;-36.854;174.870;2022-07-24T15:10:45;1.50;;;1.50;;
19643;SDS011;9970;-36.854;174.870;2022-07-24T15:13:18;1.70;;;1.70;;
19643;SDS011;9970;-36.854;174.870;2022-07-24T15:15:52;1.50;;;1.50;;
19643;SDS011;9970;-36.854;174.870;2022-07-24T15:18:25;1.40;;;1.40;;
19643;SDS011;9970;-36.854;174.870;2022-07-24T15:21:02;1.30;;;1.30;;
19643;SDS011;9970;-36.854;174.870;2022-07-24T15:23:35;1.40;;;1.40;;
19643;SDS011;9970;-36.854;174.870;2022-07-24T15:26:09;1.50;;;1.50;;